To NAV CANADA Home Page Login to a new session Search on AWWS site Feedback and Comments Disclaimer Vers la page française équivalente Tips FAQ What's new on the site To the Forecasts and Observations / NOTAM section To "File a Flight Plan" website Publications and other links Update of the User's profile FIC Telephone Numbers My Weather Data Folder Route Weather Data Regional Weather Data Local Weather Data To the Forecasts and Observations / NOTAM section
Request Generated 05/30/2016 at 02:55:44 UTC . Weather information available at that time is displayed.

METAR/TAF

CLYDE RIVER/NU    (show WxCam)

SPECI CYCY 300241Z AUTO 29007KT 9SM -SN OVC043 M04/M06 A3012 RMK
SLP205=
SPECI CYCY 300237Z AUTO 28008KT 9SM OVC043 M04/M06 A3012 RMK SLP205=
SPECI CYCY 300227Z AUTO 30009KT 9SM -SN OVC043 M05/M06 A3012 RMK
SLP205=
METAR CYCY 300200Z AUTO 29011KT 9SM OVC050 M06/M07 A3013 RMK SLP207=
METAR CYCY 300100Z AUTO 30008KT 9SM SCT032 M06/M08 A3014 RMK SLP210=
SPECI CYCY 300026Z AUTO 32010KT 9SM OVC032 M04/M06 A3014 RMK SLP211=
SPECI CYCY 300011Z AUTO 32011KT 9SM -SN OVC032 M03/M05 A3014 RMK
SLP211=
METAR CYCY 300000Z AUTO 32012KT 9SM OVC032 M03/M05 A3014 RMK SLP211=

TAF CYCY 300038Z 3001/3013 32012KT P6SM SCT010 OVC030 TEMPO 3001/3013
3SM -SN SCT007 OVC010
RMK FCST BASED ON AUTO OBS. NXT FCST BY 300700Z=
Your time UTC time
Weather data provided by Environment Canada and NAV CANADA